createdAt,value
2023-09-12T00:02:27.302Z,100016.38
2023-09-12T00:04:55.337Z,100015.34
2023-09-12T00:07:23.237Z,100018.15
2023-09-12T00:09:51.258Z,100015.05
2023-09-12T00:12:24.208Z,100014.71
2023-09-12T00:14:52.476Z,100010.55
2023-09-12T00:17:20.654Z,100006.34
2023-09-12T00:19:48.673Z,100010.65
2023-09-12T00:22:16.578Z,100012.77
2023-09-12T00:24:44.780Z,100012.80
2023-09-12T00:27:12.982Z,100013.23
2023-09-12T00:29:41.037Z,100011.17
2023-09-12T00:32:09.099Z,100008.02
2023-09-12T00:34:37.189Z,100009.91
2023-09-12T00:37:06.080Z,100010.31
2023-09-12T00:39:34.671Z,100010.84
2023-09-12T00:42:02.649Z,100010.73
2023-09-12T00:44:30.684Z,100010.62
2023-09-12T00:46:59.124Z,100013.30
2023-09-12T00:49:29.364Z,100012.02
2023-09-12T00:51:58.087Z,100016.67
2023-09-12T00:54:26.882Z,100016.23
2023-09-12T00:56:55.271Z,100011.21
2023-09-12T00:59:23.771Z,100008.99
2023-09-12T01:01:52.469Z,100006.57
2023-09-12T01:04:34.185Z,100002.81
2023-09-12T01:07:06.388Z,100004.25
2023-09-12T01:09:34.863Z,100004.47
2023-09-12T01:12:04.183Z,100002.05
2023-09-12T01:14:32.540Z,100003.98
2023-09-12T01:17:02.734Z,100004.19
2023-09-12T01:19:31.815Z,100002.80
2023-09-12T01:22:37.715Z,100003.71
2023-09-12T01:25:50.419Z,100005.13
2023-09-12T01:28:18.628Z,100010.55
2023-09-12T01:30:49.997Z,100009.52
2023-09-12T01:33:18.338Z,100013.89
2023-09-12T01:35:47.658Z,100015.48
2023-09-12T01:38:16.002Z,100012.73
2023-09-12T01:40:50.185Z,100015.67
2023-09-12T01:43:20.668Z,100017.73
2023-09-12T01:45:54.901Z,100019.34
2023-09-12T01:48:27.997Z,100017.83
2023-09-12T01:50:56.146Z,100015.44
2023-09-12T01:53:24.578Z,100011.81
2023-09-12T01:55:53.179Z,100016.65
2023-09-12T01:58:22.107Z,100014.95
2023-09-12T02:00:50.222Z,100012.94
2023-09-12T02:03:18.540Z,100008.31
2023-09-12T02:05:46.886Z,100014.05
2023-09-12T02:08:14.898Z,100012.52
2023-09-12T02:10:42.856Z,100013.45
2023-09-12T02:13:10.790Z,100011.76
2023-09-12T02:15:38.819Z,100010.73
2023-09-12T02:18:07.255Z,100008.50
2023-09-12T02:20:39.591Z,100008.73
2023-09-12T02:23:08.064Z,100009.83
2023-09-12T02:25:35.984Z,100012.13
2023-09-12T02:28:04.617Z,100014.41
2023-09-12T02:30:32.638Z,100011.15
2023-09-12T02:33:01.137Z,100010.67
2023-09-12T02:35:29.804Z,100011.40
2023-09-12T02:37:57.870Z,100011.79
2023-09-12T02:40:26.037Z,100010.95
2023-09-12T02:42:54.025Z,100008.55
2023-09-12T02:45:22.065Z,100012.40
2023-09-12T02:47:50.103Z,100015.95
2023-09-12T02:50:18.270Z,100014.96
2023-09-12T02:52:46.204Z,100013.77
2023-09-12T02:55:14.164Z,100017.38
2023-09-12T02:57:42.261Z,100018.07
2023-09-12T03:00:12.505Z,100016.40
2023-09-12T03:02:40.601Z,100018.55
2023-09-12T03:05:09.317Z,100016.00
2023-09-12T03:07:37.281Z,100014.05
2023-09-12T03:10:05.783Z,100016.02
2023-09-12T03:12:33.873Z,100014.68
2023-09-12T03:15:02.281Z,100013.00
2023-09-12T03:17:30.527Z,100013.05
2023-09-12T03:19:58.784Z,100012.77
2023-09-12T03:22:26.855Z,100012.64
2023-09-12T03:24:54.826Z,100013.04
2023-09-12T03:27:22.903Z,100016.73
2023-09-12T03:29:51.081Z,100017.30
2023-09-12T03:32:18.992Z,100018.20
2023-09-12T03:34:46.972Z,100017.23
2023-09-12T03:37:14.949Z,100022.49
2023-09-12T03:39:42.955Z,100020.10
2023-09-12T03:42:10.980Z,100024.15
2023-09-12T03:44:39.174Z,100023.66
2023-09-12T03:47:07.346Z,100023.19
2023-09-12T03:49:35.668Z,100020.94
2023-09-12T03:52:04.176Z,100023.21
2023-09-12T03:54:33.857Z,100022.54
2023-09-12T03:57:02.025Z,100022.58
2023-09-12T03:59:30.066Z,100023.11
2023-09-12T04:02:48.309Z,100022.42
2023-09-12T04:05:16.367Z,100026.77
2023-09-12T04:07:44.369Z,100025.91
2023-09-12T04:10:12.712Z,100028.70
2023-09-12T04:12:41.391Z,100026.94
2023-09-12T04:15:09.777Z,100026.08
2023-09-12T04:17:38.398Z,100027.64
2023-09-12T04:20:07.261Z,100027.65
2023-09-12T04:22:36.024Z,100032.11
2023-09-12T04:25:04.639Z,100030.47
2023-09-12T04:27:32.725Z,100031.30
2023-09-12T04:34:37.191Z,100030.42
2023-09-12T04:37:06.756Z,100029.65
2023-09-12T04:39:35.981Z,100031.09
2023-09-12T04:42:05.533Z,100029.20
2023-09-12T04:44:41.247Z,100034.36
2023-09-12T04:47:10.679Z,100028.88
2023-09-12T04:49:40.727Z,100029.31
2023-09-12T04:52:08.697Z,100029.31
2023-09-12T04:54:37.647Z,100031.33
2023-09-12T04:57:05.948Z,100031.35
2023-09-12T04:59:34.155Z,100028.61
2023-09-12T05:02:02.274Z,100032.63
2023-09-12T05:04:30.442Z,100032.62
2023-09-12T05:06:58.639Z,100027.44
2023-09-12T05:09:26.614Z,100030.89
2023-09-12T05:11:54.952Z,100034.91
2023-09-12T05:14:23.380Z,100036.61
2023-09-12T05:16:52.056Z,100038.95
2023-09-12T05:19:20.729Z,100036.39
2023-09-12T05:21:48.683Z,100040.93
2023-09-12T05:24:16.689Z,100041.98
2023-09-12T05:26:44.641Z,100041.05
2023-09-12T05:29:12.990Z,100046.25
2023-09-12T05:31:41.842Z,100043.45
2023-09-12T05:34:10.403Z,100043.18
2023-09-12T05:36:38.325Z,100043.10
2023-09-12T05:39:06.463Z,100043.75
2023-09-12T05:41:34.597Z,100043.93
2023-09-12T05:44:02.644Z,100039.52
2023-09-12T05:46:30.712Z,100038.97
2023-09-12T05:48:59.173Z,100039.54
2023-09-12T05:51:27.332Z,100039.45
2023-09-12T05:53:55.511Z,100041.61
2023-09-12T05:56:23.714Z,100040.86
2023-09-12T05:58:52.107Z,100039.95
2023-09-12T06:01:20.275Z,100043.95
2023-09-12T06:03:48.466Z,100044.30
2023-09-12T06:06:16.726Z,100041.94
2023-09-12T06:08:44.929Z,100043.30
2023-09-12T06:11:13.185Z,100042.91
2023-09-12T06:13:41.122Z,100046.17
2023-09-12T06:16:08.999Z,100049.19
2023-09-12T06:18:37.197Z,100049.54
2023-09-12T06:21:07.591Z,100051.52
2023-09-12T06:23:36.291Z,100050.21
2023-09-12T06:26:04.304Z,100053.86
2023-09-12T06:28:32.660Z,100051.42
2023-09-12T06:31:00.951Z,100048.77
2023-09-12T06:33:29.828Z,100047.94
2023-09-12T06:35:57.718Z,100050.74
2023-09-12T06:38:25.754Z,100050.99
2023-09-12T06:40:53.764Z,100047.41
2023-09-12T06:43:21.662Z,100048.55
2023-09-12T06:45:49.673Z,100053.18
2023-09-12T06:48:17.946Z,100058.26
2023-09-12T06:50:50.158Z,100057.24
2023-09-12T06:53:19.640Z,100056.11
2023-09-12T06:55:47.612Z,100055.21
2023-09-12T06:58:15.515Z,100054.75
2023-09-12T07:00:43.514Z,100054.37
2023-09-12T07:03:14.104Z,100058.70
2023-09-12T07:05:44.033Z,100059.78
2023-09-12T07:08:12.704Z,100058.05
2023-09-12T07:10:47.080Z,100059.56
2023-09-12T07:13:15.271Z,100060.21
2023-09-12T07:15:43.392Z,100059.30
2023-09-12T07:18:11.443Z,100059.70
2023-09-12T07:20:39.560Z,100061.84
2023-09-12T07:23:07.548Z,100065.19
2023-09-12T07:25:42.349Z,100068.39
2023-09-12T07:28:10.279Z,100064.36
2023-09-12T07:30:38.723Z,100062.77
2023-09-12T07:33:06.665Z,100062.42
2023-09-12T07:35:34.616Z,100062.45
2023-09-12T07:38:02.507Z,100066.26
2023-09-12T07:40:30.487Z,100063.48
2023-09-12T07:42:58.673Z,100062.26
2023-09-12T07:45:26.590Z,100057.98
2023-09-12T07:47:54.598Z,100060.19
2023-09-12T07:50:22.946Z,100052.42
2023-09-12T07:52:50.780Z,100053.75
2023-09-12T07:55:19.151Z,100057.77
2023-09-12T07:57:47.240Z,100051.66
2023-09-12T08:00:15.620Z,100046.50
2023-09-12T08:02:43.992Z,100047.29
2023-09-12T08:05:12.128Z,100047.11
2023-09-12T08:07:40.390Z,100042.48
2023-09-12T08:10:08.722Z,100045.20
2023-09-12T08:12:40.044Z,100045.48
2023-09-12T08:15:08.840Z,100044.80
2023-09-12T08:17:37.082Z,100046.24
2023-09-12T08:20:07.572Z,100046.70
2023-09-12T08:22:35.764Z,100044.33
2023-09-12T08:25:04.011Z,100045.27
2023-09-12T08:27:32.280Z,100048.08
2023-09-12T08:30:00.420Z,100050.73
2023-09-12T08:32:28.414Z,100048.98
2023-09-12T08:34:56.551Z,100053.48
2023-09-12T08:37:24.541Z,100046.30
2023-09-12T08:39:59.082Z,100046.41
2023-09-12T08:42:29.436Z,100046.55
2023-09-12T08:44:57.689Z,100045.69
2023-09-12T08:47:26.246Z,100045.54
2023-09-12T08:49:55.718Z,100047.20
2023-09-12T08:52:24.265Z,100045.16
2023-09-12T08:54:52.460Z,100045.82
2023-09-12T08:57:21.017Z,100041.61
2023-09-12T08:59:49.671Z,100044.69
2023-09-12T09:02:17.908Z,100044.13
2023-09-12T09:04:48.475Z,100038.29
2023-09-12T09:07:19.466Z,100040.88
2023-09-12T09:09:47.759Z,100036.69
2023-09-12T09:12:15.961Z,100035.73
2023-09-12T09:14:44.303Z,100038.20
2023-09-12T09:17:29.064Z,100032.77
2023-09-12T09:20:02.403Z,100033.36
2023-09-12T09:22:30.406Z,100025.36
2023-09-12T09:25:11.059Z,100028.02
2023-09-12T09:27:39.274Z,100028.08
2023-09-12T09:30:07.700Z,100028.29
2023-09-12T09:32:35.800Z,100024.00
2023-09-12T09:35:04.653Z,100026.72
2023-09-12T09:37:33.034Z,100027.79
2023-09-12T09:40:01.244Z,100025.10
2023-09-12T09:42:30.387Z,100025.86
2023-09-12T09:44:58.842Z,100025.21
2023-09-12T09:47:26.885Z,100028.64
2023-09-12T09:49:59.008Z,100027.77
2023-09-12T09:52:30.886Z,100027.31
2023-09-12T09:54:59.736Z,100023.36
2023-09-12T09:57:28.417Z,100025.14
2023-09-12T09:59:56.776Z,100026.55
2023-09-12T10:02:26.995Z,100023.13
2023-09-12T10:07:26.507Z,100021.33
2023-09-12T10:09:54.926Z,100013.45
2023-09-12T10:12:24.488Z,100017.61
2023-09-12T10:14:53.030Z,100016.96
2023-09-12T10:17:24.804Z,100015.33
2023-09-12T10:19:56.739Z,100009.60
2023-09-12T10:22:43.948Z,100010.00
2023-09-12T10:25:12.473Z,100009.42
2023-09-12T10:27:41.385Z,100007.13
2023-09-12T10:30:10.496Z,100007.19
2023-09-12T10:32:39.623Z,100008.86
2023-09-12T10:35:09.241Z,100006.20
2023-09-12T10:37:39.134Z,100004.96
2023-09-12T10:40:09.339Z,100004.60
2023-09-12T10:42:38.127Z,100004.80
2023-09-12T10:45:08.655Z,100001.79
2023-09-12T10:47:38.264Z,99998.69
2023-09-12T10:50:07.798Z,99994.93
2023-09-12T10:52:40.963Z,99991.19
2023-09-12T10:55:16.323Z,99989.47
2023-09-12T10:58:06.655Z,99995.83
2023-09-12T11:04:35.657Z,99989.51
2023-09-12T11:07:42.052Z,99989.14
2023-09-12T11:10:22.552Z,99986.67
2023-09-12T11:12:55.963Z,99987.47
2023-09-12T11:15:26.819Z,99986.23
2023-09-12T11:18:04.900Z,99988.92
2023-09-12T11:21:06.253Z,99989.96
2023-09-12T11:23:35.862Z,99988.77
2023-09-12T11:26:08.209Z,99988.01
2023-09-12T11:28:36.500Z,99984.73
2023-09-12T11:31:05.691Z,99988.90
2023-09-12T11:33:34.195Z,99992.02
2023-09-12T11:36:04.944Z,99989.48
2023-09-12T11:38:33.527Z,99985.71
2023-09-12T11:41:02.028Z,99982.75
2023-09-12T11:43:30.192Z,99983.51
2023-09-12T11:45:59.107Z,99981.50
2023-09-12T11:48:31.226Z,99979.10
2023-09-12T11:51:00.016Z,99978.14
2023-09-12T11:53:32.324Z,99977.02
2023-09-12T11:56:01.668Z,99977.89
2023-09-12T11:58:30.143Z,99978.35
2023-09-12T12:01:02.511Z,99976.34
2023-09-12T12:03:31.268Z,99977.27
2023-09-12T12:05:59.770Z,99976.56
2023-09-12T12:08:32.467Z,99974.86
2023-09-12T12:11:01.150Z,99972.73
2023-09-12T12:13:29.933Z,99978.19
2023-09-12T12:15:59.114Z,99980.58
2023-09-12T12:18:28.014Z,99979.06
2023-09-12T12:20:56.688Z,99972.10
2023-09-12T12:23:24.802Z,99965.84
2023-09-12T12:25:52.899Z,99958.52
2023-09-12T12:28:22.721Z,99965.29
2023-09-12T12:30:55.759Z,99966.25
2023-09-12T12:34:13.189Z,99966.50
2023-09-12T12:36:11.963Z,99967.61
2023-09-12T12:38:51.151Z,99966.31
2023-09-12T12:41:40.250Z,99963.04
2023-09-12T12:44:14.578Z,99963.79
2023-09-12T12:46:50.040Z,99959.63
2023-09-12T12:49:18.109Z,99959.07
2023-09-12T12:51:47.813Z,99956.65
2023-09-12T12:54:16.640Z,99954.29
2023-09-12T12:56:48.436Z,99952.52
2023-09-12T12:59:16.429Z,99952.36
2023-09-12T13:01:45.734Z,99956.23
2023-09-12T13:04:14.029Z,99952.08
2023-09-12T13:06:42.608Z,99951.44
2023-09-12T13:09:12.848Z,99951.44
2023-09-12T13:11:41.164Z,99954.36
2023-09-12T13:14:12.363Z,99949.04
2023-09-12T13:16:42.467Z,99947.92
2023-09-12T13:19:14.893Z,99947.17
2023-09-12T13:21:44.235Z,99943.75
2023-09-12T13:24:14.549Z,99945.31
2023-09-12T13:26:42.732Z,99946.49
2023-09-12T13:29:11.722Z,99946.98
2023-09-12T13:31:40.135Z,99943.09
2023-09-12T13:34:08.618Z,99943.58
2023-09-12T13:36:36.892Z,99944.31
2023-09-12T13:39:05.378Z,99943.26
2023-09-12T13:41:33.647Z,99944.88
2023-09-12T13:44:01.720Z,99944.05
2023-09-12T13:46:31.649Z,99944.07
2023-09-12T13:49:01.822Z,99944.42
2023-09-12T13:51:31.258Z,99946.10
2023-09-12T13:53:59.291Z,99944.98
2023-09-12T13:56:27.887Z,99942.59
2023-09-12T13:58:56.778Z,99947.70
2023-09-12T14:01:33.459Z,99945.09
2023-09-12T14:04:04.342Z,99942.52
2023-09-12T14:06:35.432Z,99940.98
2023-09-12T14:09:04.564Z,99939.63
2023-09-12T14:11:36.814Z,99938.77
2023-09-12T14:16:38.735Z,99938.63
2023-09-12T14:19:07.535Z,99941.69
2023-09-12T14:21:36.107Z,99943.88
2023-09-12T14:24:06.044Z,99942.48
2023-09-12T14:26:35.093Z,99941.00
2023-09-12T14:29:03.435Z,99947.64
2023-09-12T14:31:31.784Z,99952.46
2023-09-12T14:34:00.315Z,99954.89
2023-09-12T14:36:28.653Z,99951.61
2023-09-12T14:38:56.728Z,99950.28
2023-09-12T14:41:24.637Z,99951.52
2023-09-12T14:43:52.675Z,99953.36
2023-09-12T14:46:20.837Z,99953.02
2023-09-12T14:48:59.654Z,99953.68
2023-09-12T14:51:33.559Z,99951.55
2023-09-12T14:54:04.042Z,99950.99
2023-09-12T14:56:33.682Z,99951.58
2023-09-12T14:59:02.707Z,99952.64
2023-09-12T15:01:32.722Z,99950.81
2023-09-12T15:04:02.165Z,99954.73
2023-09-12T15:06:34.205Z,99953.30
2023-09-12T15:09:02.392Z,99953.30
2023-09-12T15:11:32.752Z,99953.90
2023-09-12T15:14:01.214Z,99949.17
2023-09-12T15:16:32.678Z,99946.60
2023-09-12T15:19:03.828Z,99947.64
2023-09-12T15:21:31.876Z,99949.23
2023-09-12T15:24:00.231Z,99951.19
2023-09-12T15:26:28.302Z,99953.83
2023-09-12T15:28:57.596Z,99955.31
2023-09-12T15:31:25.672Z,99951.95
2023-09-12T15:33:53.850Z,99951.44
2023-09-12T15:36:22.500Z,99956.75
2023-09-12T15:38:50.652Z,99954.39
2023-09-12T15:41:19.089Z,99954.98
2023-09-12T15:43:48.047Z,99953.02
2023-09-12T15:46:30.998Z,99954.13
2023-09-12T15:49:04.066Z,99950.81
2023-09-12T15:51:33.187Z,99952.48
2023-09-12T15:54:01.585Z,99954.11
2023-09-12T15:56:29.696Z,99958.14
2023-09-12T15:58:59.011Z,99955.95
2023-09-12T16:01:27.284Z,99954.33
2023-09-12T16:03:55.948Z,99956.39
2023-09-12T16:06:23.998Z,99957.38
2023-09-12T16:08:52.174Z,99957.40
2023-09-12T16:11:20.389Z,99954.73
2023-09-12T16:13:51.747Z,99954.23
2023-09-12T16:16:20.293Z,99956.08
2023-09-12T16:18:49.852Z,99955.86
2023-09-12T16:21:18.270Z,99955.91
2023-09-12T16:23:46.425Z,99954.00
2023-09-12T16:26:14.480Z,99953.04
2023-09-12T16:28:43.776Z,99955.54
2023-09-12T16:31:12.038Z,99955.92
2023-09-12T16:33:40.105Z,99956.91
2023-09-12T16:36:08.505Z,99959.14
2023-09-12T16:38:36.720Z,99958.45
2023-09-12T16:41:04.822Z,99961.61
2023-09-12T16:43:33.080Z,99961.02
2023-09-12T16:46:01.556Z,99960.57
2023-09-12T16:48:31.210Z,99960.16
2023-09-12T16:51:00.352Z,99967.40
2023-09-12T16:53:28.497Z,99962.46
2023-09-12T16:55:59.288Z,99964.16
2023-09-12T16:58:28.127Z,99968.25
2023-09-12T17:00:56.199Z,99971.66
2023-09-12T17:03:24.880Z,99972.29
2023-09-12T17:05:53.043Z,99973.67
2023-09-12T17:08:21.096Z,99971.03
2023-09-12T17:10:49.600Z,99971.96
2023-09-12T17:13:17.671Z,99972.99
2023-09-12T17:15:45.694Z,99974.02
2023-09-12T17:18:14.007Z,99977.13
2023-09-12T17:20:42.231Z,99971.96
2023-09-12T17:23:10.294Z,99971.66
2023-09-12T17:25:38.254Z,99967.94
2023-09-12T17:28:06.468Z,99973.73
2023-09-12T17:30:34.599Z,99975.02
2023-09-12T17:33:02.859Z,99975.77
2023-09-12T17:35:30.871Z,99980.41
2023-09-12T17:37:58.932Z,99984.09
2023-09-12T17:40:27.162Z,99985.12
2023-09-12T17:42:55.271Z,99988.82
2023-09-12T17:45:23.428Z,99987.05
2023-09-12T17:47:54.557Z,99985.16
2023-09-12T17:50:23.502Z,99988.71
2023-09-12T17:52:51.646Z,99991.08
2023-09-12T17:55:20.673Z,99992.89
2023-09-12T17:57:48.923Z,99996.38
2023-09-12T18:00:17.294Z,100000.88
2023-09-12T18:02:45.468Z,99997.36
2023-09-12T18:05:13.585Z,100001.40
2023-09-12T18:07:41.646Z,100001.63
2023-09-12T18:10:10.179Z,99999.36
2023-09-12T18:12:38.285Z,100000.45
2023-09-12T18:15:08.483Z,99999.88
2023-09-12T18:17:36.519Z,100003.15
2023-09-12T18:20:05.359Z,100006.83
2023-09-12T18:22:33.876Z,100006.68
2023-09-12T18:25:02.216Z,100006.28
2023-09-12T18:27:30.282Z,100010.45
2023-09-12T18:29:58.320Z,100012.02
2023-09-12T18:32:26.869Z,100012.91
2023-09-12T18:34:54.972Z,100014.74
2023-09-12T18:37:23.106Z,100017.15
2023-09-12T18:39:51.242Z,100018.48
2023-09-12T18:42:19.212Z,100016.40
2023-09-12T18:44:47.109Z,100020.54
2023-09-12T18:47:15.469Z,100014.46
2023-09-12T18:49:43.560Z,100013.20
2023-09-12T18:52:11.637Z,100013.29
2023-09-12T18:54:39.692Z,100013.38
2023-09-12T18:57:12.126Z,100009.27
2023-09-12T18:59:42.057Z,100011.34
2023-09-12T19:04:38.710Z,100003.85
2023-09-12T19:07:06.865Z,100001.30
2023-09-12T19:09:35.087Z,100003.93
2023-09-12T19:12:04.932Z,100003.67
2023-09-12T19:14:33.720Z,100004.17
2023-09-12T19:17:02.702Z,100003.66
2023-09-12T19:19:30.588Z,100008.02
2023-09-12T19:21:59.268Z,100003.79
2023-09-12T19:24:27.284Z,100007.33
2023-09-12T19:26:55.250Z,100005.95
2023-09-12T19:29:23.426Z,100000.52
2023-09-12T19:31:51.879Z,100000.59
2023-09-12T19:34:20.060Z,100003.11
2023-09-12T19:36:48.302Z,100002.29
2023-09-12T19:39:16.265Z,100000.77
2023-09-12T19:41:44.247Z,100003.64
2023-09-12T19:44:12.285Z,100006.13
2023-09-12T19:46:41.647Z,100005.48
2023-09-12T19:49:10.112Z,100009.51
2023-09-12T19:51:38.324Z,100007.77
2023-09-12T19:54:07.352Z,100006.23
2023-09-12T19:56:35.881Z,100009.55
2023-09-12T19:59:04.201Z,100008.61
2023-09-12T20:01:32.150Z,100011.16
2023-09-12T20:04:00.488Z,100012.86
2023-09-12T20:06:28.789Z,100011.27
2023-09-12T20:08:56.812Z,100015.63
2023-09-12T20:11:25.165Z,100018.56
2023-09-12T20:13:53.124Z,100021.66
2023-09-12T20:16:22.947Z,100020.64
2023-09-12T20:18:51.359Z,100020.14
2023-09-12T20:21:19.364Z,100018.58
2023-09-12T20:23:47.843Z,100016.17
2023-09-12T20:26:15.679Z,100014.85
2023-09-12T20:28:43.623Z,100017.59
2023-09-12T20:31:11.784Z,100015.80
2023-09-12T20:33:40.059Z,100018.92
2023-09-12T20:36:08.308Z,100017.34
2023-09-12T20:38:37.116Z,100016.64
2023-09-12T20:41:05.048Z,100014.64
2023-09-12T20:43:33.335Z,100013.01
2023-09-12T20:46:01.249Z,100018.73
2023-09-12T20:48:29.326Z,100017.09
2023-09-12T20:50:57.219Z,100017.59
2023-09-12T20:53:25.161Z,100021.39
2023-09-12T20:55:53.043Z,100025.48
2023-09-12T20:58:21.038Z,100021.39
2023-09-12T21:00:49.625Z,100019.86
2023-09-12T21:03:17.674Z,100019.06
2023-09-12T21:05:47.170Z,100017.14
2023-09-12T21:08:15.205Z,100015.23
2023-09-12T21:10:45.006Z,100016.84
2023-09-12T21:13:16.077Z,100015.40
2023-09-12T21:15:44.161Z,100013.90
2023-09-12T21:18:12.169Z,100015.08
2023-09-12T21:20:40.169Z,100015.85
2023-09-12T21:23:08.102Z,100014.94
2023-09-12T21:25:36.104Z,100016.58
2023-09-12T21:28:04.412Z,100014.58
2023-09-12T21:30:32.404Z,100017.92
2023-09-12T21:33:01.537Z,100011.75
2023-09-12T21:35:29.753Z,100018.92
2023-09-12T21:37:57.673Z,100019.48
2023-09-12T21:40:25.688Z,100018.81
2023-09-12T21:42:53.668Z,100017.39
2023-09-12T21:45:22.062Z,100017.16
2023-09-12T21:47:50.075Z,100012.32
2023-09-12T21:50:18.296Z,100012.76
2023-09-12T21:52:46.158Z,100014.59
2023-09-12T21:55:14.138Z,100011.45
2023-09-12T21:57:42.069Z,100011.84
2023-09-12T22:00:24.317Z,100010.30
2023-09-12T22:02:53.551Z,100007.45
2023-09-12T22:05:22.636Z,100003.54
2023-09-12T22:07:51.735Z,100004.66
2023-09-12T22:10:20.932Z,100005.58
2023-09-12T22:12:49.996Z,100010.72
2023-09-12T22:15:18.330Z,100015.70
2023-09-12T22:17:46.541Z,100015.38
2023-09-12T22:20:18.616Z,100017.63
2023-09-12T22:22:47.443Z,100019.77
2023-09-12T22:25:16.300Z,100024.18
2023-09-12T22:27:44.806Z,100021.97
2023-09-12T22:30:12.910Z,100019.40
2023-09-12T22:32:40.966Z,100020.71
2023-09-12T22:35:09.709Z,100027.91
2023-09-12T22:37:37.818Z,100026.63
2023-09-12T22:40:08.296Z,100023.36
2023-09-12T22:42:36.494Z,100024.03
2023-09-12T22:45:06.561Z,100024.77
2023-09-12T22:47:34.433Z,100026.23
2023-09-12T22:50:06.628Z,100028.20
2023-09-12T22:52:34.813Z,100029.15
2023-09-12T22:55:05.744Z,100027.02
2023-09-12T22:57:34.189Z,100029.19
2023-09-12T23:00:02.394Z,100030.48
2023-09-12T23:02:30.283Z,100030.52
2023-09-12T23:04:58.798Z,100030.57
2023-09-12T23:07:27.023Z,100023.16
2023-09-12T23:09:55.353Z,100025.27
2023-09-12T23:12:24.239Z,100022.85
2023-09-12T23:14:55.451Z,100017.44
2023-09-12T23:17:23.921Z,100013.78
2023-09-12T23:19:52.469Z,100014.70
2023-09-12T23:22:20.567Z,100011.23
2023-09-12T23:24:49.655Z,100007.99
2023-09-12T23:27:17.587Z,100014.64
2023-09-12T23:29:46.044Z,100016.11
2023-09-12T23:32:14.057Z,100013.92
2023-09-12T23:34:42.574Z,100008.55
2023-09-12T23:37:10.776Z,100012.93
2023-09-12T23:39:38.814Z,100013.15
2023-09-12T23:42:06.923Z,100010.72
2023-09-12T23:44:35.427Z,100011.83
2023-09-12T23:47:03.487Z,100008.05
2023-09-12T23:49:31.421Z,100010.36
2023-09-12T23:51:59.377Z,100008.17
2023-09-12T23:54:27.420Z,100007.71
2023-09-12T23:56:55.209Z,100008.33
2023-09-12T23:59:23.528Z,100005.38
